Weather observations for the past three days for
Bremerton, Bremerton National Airport
Metric (Imperial)
Date Time (pdt) Wind (kph) Vis. (km) Weather Sky Cond. Temperature (ºC) Relative Humidity Wind Chill (°C) Heat Index (°C) Pressure Precipitation (cm)
Air Dwpt 6 hour altimeter (cm) sea level (mb) 1 hr 3 hr 6 hr
Max. Min.
02 09:56 NE 17 G 28 16.09 Fair CLR 15.6 11.1 75% 76.28 1017.3
02 08:56 Vrbl 11 16.09 Fair CLR 13.3 10.6 84% 76.3 1017.5
02 07:56 NE 6 16.09 Fair CLR 10.6 10 96% 76.28 1017.3
02 06:56 Calm 11.27 Fair CLR 8.3 8.3 100% 76.28 1017.2
02 05:56 Calm 9.66 Fog/Mist FEW003 8.3 8.3 100% 76.28 1017.1
02 04:56 Calm 16.09 Partly Cloudy FEW003 SCT110 8.9 8.9 11.7 7.2 100% 76.28 1017.2
02 03:56 S 7 16.09 Partly Cloudy SCT110 8.9 8.9 100% 8 76.33 1018.0
02 02:56 SW 6 16.09 Fair CLR 7.8 7.8 100% 76.3 1017.5
02 01:56 S 7 16.09 Fair CLR 8.9 8.9 100% 8 76.3 1017.6
02 00:56 S 6 16.09 Fair CLR 10 9.4 96% 76.3 1017.6
01 23:56 SW 6 16.09 Fair CLR 10 9.4 96% 76.28 1017.2
01 22:56 SW 9 16.09 Fair CLR 11.7 10.6 23.3 11.7 93% 76.25 1016.9
01 21:56 SW 9 16.09 Mostly Cloudy BKN110 13.9 11.1 83% 76.23 1016.7
01 20:56 Calm 16.09 A Few Clouds FEW110 16.1 10.6 70% 76.2 1016.1
01 19:56 S 6 16.09 Fair CLR 17.2 10.6 65% 76.15 1015.4
01 18:56 NE 9 16.09 Light Rain FEW110 19.4 11.1 59% 76.1 1014.9
01 17:56 Vrbl 11 16.09 Fair CLR 21.7 10.6 49% 76.1 1014.8
01 16:56 NE 15 16.09 Fair CLR 23.3 11.7 24.4 17.8 48% 76.07 1014.6
01 15:56 NE 11 16.09 Fair CLR 23.3 11.1 46% 76.1 1015.0
01 14:56 Calm 16.09 Fair CLR 23.3 10 43% 76.15 1015.5
01 13:56 SW 7 16.09 Fair CLR 22.8 10.6 46% 76.17 1015.8
01 12:56 Vrbl 6 16.09 Fair CLR 21.1 10.6 51% 76.2 1016.3
01 11:56 Calm 16.09 Fair CLR 19.4 9.4 53% 76.25 1017.0
01 10:56 Calm 16.09 Fair CLR 17.8 8.9 18.3 6.1 56% 76.28 1017.3
01 09:56 N 7 16.09 Fair CLR 16.7 8.9 60% 76.3 1017.6
01 08:56 NE 6 16.09 Fair CLR 15 8.9 67% 76.33 1017.9
01 07:56 Calm 16.09 Fair CLR 12.8 8.9 77% 76.33 1017.9
01 06:56 Calm 16.09 Fair CLR 7.2 7.2 100% 76.3 1017.4
01 05:56 Calm 16.09 Fair CLR 6.7 6.7 100% 76.25 1017.1
01 04:56 Calm 16.09 Fair CLR 7.8 7.8 13.9 6.1 100% 76.25 1016.9
01 03:56 SW 6 16.09 Fair CLR 7.2 6.7 97% 76.25 1017.1
01 02:56 Calm 16.09 Fair CLR 9.4 7.2 86% 76.25 1016.8
01 01:56 NE 9 16.09 Fair CLR 12.8 8.3 74% 76.23 1016.6
01 00:56 NE 11 16.09 Fair CLR 13.3 8.3 72% 76.23 1016.6
30 23:56 Calm 16.09 Fair CLR 11.7 8.3 80% 76.23 1016.7
30 22:56 NW 6 16.09 Fair CLR 13.9 8.3 24.4 13.9 69% 76.25 1016.8
30 21:56 NE 11 16.09 Fair CLR 16.1 8.3 60% 76.25 1016.9
30 20:56 NE 6 16.09 Fair CLR 15 8.3 64% 76.23 1016.5
30 19:56 NE 13 16.09 Fair CLR 18.3 8.9 54% 76.2 1016.2
30 18:56 NE 11 16.09 Fair CLR 21.1 10.6 51% 76.2 1016.2
30 17:56 NE 13 16.09 Fair CLR 23.9 6.7 33% 25 76.23 1016.4
30 16:56 NE 13 16.09 Fair CLR 24.4 7.2 25 17.8 33% 25 76.25 1016.9
30 15:56 NE 13 16.09 Fair CLR 23.9 10 42% 25 76.33 1017.8
30 14:56 NE 9 16.09 Fair CLR 23.3 7.8 37% 76.35 1018.3
30 13:56 Vrbl 6 16.09 Fair CLR 22.2 10 46% 76.4 1019.1
30 12:56 Calm 16.09 Fair CLR 20.6 10.6 53% 76.45 1019.8
30 11:56 NE 9 16.09 Fair CLR 19.4 10.6 57% 76.5 1020.3
30 10:56 NE 11 16.09 Fair CLR 17.8 10 18.3 3.9 60% 76.56 1020.7
30 09:56 NE 11 16.09 Fair CLR 16.7 9.4 62% 76.58 1021.4
30 08:56 NE 15 16.09 Fair CLR 13.3 8.3 72% 76.61 1021.9
30 07:56 NE 15 16.09 Fair CLR 11.1 8.3 83% 76.63 1021.9
30 06:56 Calm 16.09 Fair CLR 7.2 7.2 100% 76.63 1022.0
30 05:56 Calm 16.09 Fair CLR 4.4 4.4 100% 76.63 1022.0
30 04:56 Calm 16.09 Fair CLR 5.6 5.6 11.7 5 100% 76.63 1022.0
30 03:56 Calm 16.09 Fair CLR 7.2 6.1 93% 76.63 1022.0
30 02:56 NE 11 16.09 Fair CLR 9.4 7.2 86% 8 76.61 1021.7
30 01:56 NE 9 16.09 Fair CLR 10 7.2 83% 9 76.66 1022.3
30 00:56 NE 13 16.09 Fair CLR 10 6.7 80% 8 76.68 1022.5
29 23:56 E 11 16.09 Fair CLR 11.1 6.7 75% 76.68 1022.5
29 22:56 NE 6 16.09 Fair CLR 9.4 7.2 19.4 8.3 86% 76.68 1022.7
29 21:56 Calm 16.09 Fair CLR 9.4 7.2 86% 76.71 1023.0
29 20:56 Calm 16.09 Fair CLR 10 8.3 89% 76.68 1022.7
29 19:56 NE 11 16.09 Fair CLR 15.6 7.8 60% 76.66 1022.3
29 18:56 NE 13 16.09 Fair CLR 17.8 7.8 52% 76.66 1022.5
29 17:56 NE 11 16.09 Fair CLR 18.9 8.3 50% 76.68 1022.7
29 16:56 NE 19 16.09 Fair CLR 19.4 8.3 19.4 14.4 49% 76.68 1022.5
29 15:56 NE 11 16.09 Fair CLR 18.9 7.8 49% 76.71 1023.1
29 14:56 NE 19 G 26 16.09 Fair CLR 18.9 8.3 50% 76.76 1023.7
29 13:56 NE 13 16.09 Fair CLR 18.3 8.3 52% 76.78 1024.0
29 12:56 NE 15 16.09 Fair CLR 17.2 7.8 54% 76.81 1024.5
29 11:56 NE 22 16.09 Fair CLR 16.1 7.8 58% 76.84 1024.9
29 10:56 NE 17 16.09 Fair CLR 14.4 7.8 14.4 2.2 65% 76.89 1025.4
Date Time (pdt) Wind (kph) Vis. (km) Weather Sky Cond. Air Dwpt Max. Min. Relative Humidity Wind Chill (°C) Heat Index (°C) altimeter (cm) sea level (mb) 1 hr 3 hr 6 hr
6 hour
Temperature (ºC) Pressure Precipitation (cm)